x

Potomac, Md (44042) Weather Station

4:40pm - Tue 26th Jul 2016 All times are EDT. -4 hours from GMT.

  • Wind
    9mph, 11mph gusts
  • Air Temp 87°f
  • Sea Pressure 1011.9mb
  • Potomac, Md
  • Potomac, Md

More Historic Weather Station data

Upgrade to MSW Pro to gain access to the past 30 days of data for over 8000 Wavebouys and Weather Stations around the globe.

Join Pro

Comparision Forecast

View Surf forecast
   
Tue 07/26 4:40pm  -   -  9 11 mph 1011.9mb - 87f
4:30pm  -   -  9 11 mph 1012mb - 88f
4:20pm  -   -  7
mph
1012.2mb - 88f
4:10pm  -   -  7
mph
1012.3mb - 88f
4:00pm 0.3ft  -  7 9 mph 1012.2mb 87f 87f
3:50pm  -   -  7
mph
1012.1mb - 87f
3:40pm  -   -  7
mph
1012.3mb - 87f
3:30pm  -   -  7
mph
1012.5mb - 87f
3:20pm  -   -  7
mph
1012.6mb - 87f
3:10pm  -   -  7
mph
1012.6mb - 87f
3:00pm 0.3ft  -  4 7 mph 1012.5mb 87f 86f
2:50pm  -   -  7
mph
1012.7mb - 86f
2:40pm  -   -  7
mph
1012.7mb - 86f
2:30pm  -   -  7
mph
1012.8mb - 86f
2:20pm  -   -  7
mph
1012.8mb - 86f
2:10pm  -   -  7
mph
1012.8mb - 86f
2:00pm 0.3ft  -  7
mph
1012.9mb 86f 86f
1:50pm  -   -  7
mph
1013mb - 86f
1:40pm  -   -  7
mph
1013mb - 86f
1:30pm  -   -  7
mph
1013.1mb - 86f
1:20pm  -   -  7
mph
1013.1mb - 86f
1:10pm  -   -  4 7 mph 1013.2mb - 86f
1:00pm 0.3ft  -  4 7 mph 1013.3mb 86f 86f
12:50pm  -   -  4 7 mph 1013.4mb - 86f
12:40pm  -   -  4 7 mph 1013.5mb - 86f
12:30pm  -   -  4 7 mph 1013.5mb - 86f
12:20pm  -   -  7 9 mph 1013.5mb - 85f
12:10pm  -   -  9
mph
1013.5mb - 85f
12:00pm 0.3ft  -  9 11 mph 1013.5mb 87f 85f
11:50am  -   -  9 11 mph 1013.5mb - 85f
11:40am  -   -  9 11 mph 1013.5mb - 85f
11:30am  -   -  9 11 mph 1013.5mb - 85f
11:20am  -   -  11
mph
1013.4mb - 85f
11:10am  -   -  11 13 mph 1013.3mb - 85f
11:00am 0.3ft  -  9 13 mph 1013.4mb 87f 85f
10:50am  -   -  9 11 mph 1013.4mb - 85f
10:40am  -   -  9 11 mph 1013.4mb - 84f
10:30am  -   -  9 11 mph 1013.3mb - 84f
10:20am  -   -  9 11 mph 1013.2mb - 84f
10:10am  -   -  9
mph
1013.2mb - 84f
10:00am 0.7ft  -  7 9 mph 1013.1mb 86f 84f
9:50am  -   -  7 11 mph 1013.2mb - 84f
9:40am  -   -  7 9 mph 1013.2mb - 84f
9:30am  -   -  7 9 mph 1013.2mb - 84f
9:20am  -   -  9 11 mph 1013.2mb - 84f
9:10am  -   -  7 9 mph 1013.1mb - 84f
9:00am 1ft 3s 9 11 mph 1013.1mb 85f 83f
8:50am  -   -  7 9 mph 1013mb - 83f
8:40am  -   -  9 11 mph 1013mb - 83f
8:30am  -   -  9 11 mph 1013mb - 83f
8:20am  -   -  9 13 mph 1012.9mb - 83f
8:10am  -   -  11 13 mph 1012.9mb - 83f
8:00am 1ft 2s 11 13 mph 1012.8mb 85f 83f
7:50am  -   -  11
mph
1012.8mb - 83f
7:40am  -   -  11 13 mph 1012.7mb - 83f
7:30am  -   -  11 13 mph 1012.6mb - 83f
7:20am  -   -  11 16 mph 1012.6mb - 84f
7:10am  -   -  11 13 mph 1012.4mb - 83f
7:00am 1.3ft 2s 11 13 mph 1012.3mb 85f 83f
6:50am  -   -  11 13 mph 1012.3mb - 83f
6:40am  -   -  13 16 mph 1012.2mb - 83f
6:30am  -   -  13 16 mph 1012.1mb - 83f
6:20am  -   -  13 16 mph 1012mb - 83f
6:10am  -   -  13 16 mph 1011.8mb - 84f
6:00am 1.3ft 2s 13 16 mph 1011.7mb 86f 84f
5:50am  -   -  16 18 mph 1011.7mb - 84f
5:40am  -   -  13 16 mph 1011.5mb - 84f
5:30am  -   -  16 18 mph 1011.4mb - 84f
5:20am  -   -  13 16 mph 1011.3mb - 84f
5:10am  -   -  11 16 mph 1011.1mb - 84f
5:00am 1ft 2s 11 13 mph 1011.2mb 86f 84f
4:50am  -   -  11 13 mph 1011.3mb - 83f
4:40am  -   -  11 13 mph 1011.3mb - 83f
4:30am  -   -  11 13 mph 1011.3mb - 83f
4:20am  -   -  11 13 mph 1011.3mb - 83f
4:10am  -   -  13 16 mph 1011.2mb - 83f
4:00am 0.7ft  -  11 13 mph 1011.1mb 87f 83f
3:50am  -   -  11 13 mph 1011.2mb - 83f
3:40am  -   -  11 13 mph 1011.3mb - 83f
3:30am  -   -  11 13 mph 1011.1mb - 83f
3:20am  -   -  9 11 mph 1011.1mb - 83f
3:10am  -   -  4 7 mph 1011.3mb - 83f
3:00am 0.7ft  -  4 7 mph 1011.5mb 87f 82f
2:50am  -   -  4 7 mph 1011.7mb - 82f
2:40am  -   -  2 4 mph 1011.7mb - 82f
2:30am  -   -  4
mph
1011.6mb - 81f
2:20am  -   -  7 9 mph 1011.8mb - 81f
2:10am  -   -  7 9 mph 1012mb - 81f
2:00am 1.3ft 2s 7 9 mph 1011.9mb 87f 81f
1:50am  -   -  11 16 mph 1012.1mb - 81f
1:40am  -   -  16 22 mph 1012.2mb - 82f
1:30am  -   -  18 25 mph 1012.2mb - 83f
1:20am  -   -  13 18 mph 1011.7mb - 87f
1:10am  -   -  16 20 mph 1010.8mb - 87f
1:00am 1.6ft 3s 18 20 mph 1010.4mb 87f 87f
12:50am  -   -  16 20 mph 1010.4mb - 87f
12:40am  -   -  16 20 mph 1010.8mb - 87f
12:30am  -   -  18 22 mph 1010.7mb - 87f
12:20am  -   -  16 20 mph 1011mb - 87f
12:10am  -   -  16 20 mph 1010.9mb - 87f
12:00am 1.3ft 3s 18 20 mph 1010.8mb 87f 87f
Mon 07/25 11:50pm  -   -  16 20 mph 1010.8mb - 87f
11:40pm  -   -  16 20 mph 1011.1mb - 87f
11:30pm  -   -  16 20 mph 1011.2mb - 87f
11:20pm  -   -  16 18 mph 1011.2mb - 87f
11:10pm  -   -  16 20 mph 1011.2mb - 87f
11:00pm 1ft 3s 16 20 mph 1011.2mb 87f 87f
10:50pm  -   -  13 16 mph 1011.3mb - 87f
10:40pm  -   -  13 16 mph 1011.5mb - 87f
10:30pm  -   -  13 16 mph 1011.6mb - 87f
10:20pm  -   -  11 13 mph 1011.7mb - 87f
10:10pm  -   -  11 13 mph 1011.7mb - 88f
10:00pm 1ft 3s 11 13 mph 1011.6mb 86f 88f
9:50pm  -   -  11 13 mph 1011.6mb - 88f
9:40pm  -   -  11 13 mph 1011.6mb - 88f
9:30pm  -   -  11 13 mph 1011.5mb - 88f
9:20pm  -   -  9 13 mph 1011.4mb - 88f
9:10pm  -   -  9 11 mph 1011.2mb - 88f
9:00pm 1ft 2s 9 11 mph 1011mb 85f 88f
8:50pm  -   -  9 11 mph 1010.9mb - 88f
8:40pm  -   -  9 11 mph 1010.8mb - 88f
8:30pm  -   -  9 11 mph 1010.9mb - 88f
8:20pm  -   -  9 11 mph 1010.9mb - 89f
8:10pm  -   -  9 11 mph 1010.8mb - 89f
8:00pm 1ft 2s 9 11 mph 1010.7mb 86f 89f
7:50pm  -   -  11
mph
1010.5mb - 89f
7:40pm  -   -  9 11 mph 1010.4mb - 89f
7:30pm  -   -  9 11 mph 1010.3mb - 89f
7:20pm  -   -  9 11 mph 1010.3mb - 89f
7:10pm  -   -  9 11 mph 1010.4mb - 90f
7:00pm 1.6ft 2s 9 11 mph 1010.6mb 86f 90f
6:50pm  -   -  7 9 mph 1010.6mb - 90f
6:40pm  -   -  9 11 mph 1010.6mb - 91f
6:30pm  -   -  13 16 mph 1010.7mb - 91f
6:20pm  -   -  13 16 mph 1010.6mb - 92f
6:10pm  -   -  13 18 mph 1010.6mb - 92f
6:00pm 1.6ft 2s 16 18 mph 1010.5mb 86f 92f
5:50pm  -   -  13 18 mph 1010.4mb - 92f
5:40pm  -   -  13 16 mph 1010.3mb - 92f
5:30pm  -   -  13 16 mph 1010mb - 92f
5:20pm  -   -  13 18 mph 1010.1mb - 93f
5:10pm  -   -  13 18 mph 1010.2mb - 93f
5:00pm 1.3ft 2s 11 16 mph 1010.2mb 86f 92f
4:50pm  -   -  13 16 mph 1010.4mb - 93f
4:40pm  -   -  13 16 mph 1010.5mb - 93f
4:30pm  -   -  11 16 mph 1010.5mb - 93f
4:20pm  -   -  13 18 mph 1010.5mb - 93f
4:10pm  -   -  11 13 mph 1010.8mb - 94f
4:00pm 1ft 2s 11 13 mph 1010.9mb 87f 93f
3:50pm  -   -  9 11 mph 1011mb - 93f
3:40pm  -   -  9 11 mph 1011.1mb - 93f
3:30pm  -   -  9 11 mph 1011.2mb - 93f
3:20pm  -   -  9 11 mph 1011.3mb - 93f
3:10pm  -   -  11 16 mph 1011.5mb - 94f
3:00pm 1ft 2s 9 13 mph 1011.6mb 87f 93f
2:50pm  -   -  9 13 mph 1011.7mb - 93f
2:40pm  -   -  11 13 mph 1012mb - 93f
2:30pm  -   -  9 13 mph 1012mb - 92f
2:20pm  -   -  9
mph
1012.2mb - 92f
2:10pm  -   -  9 13 mph 1012.4mb - 92f
2:00pm 1ft 2s 11 13 mph 1012.4mb 87f 92f
1:50pm  -   -  11
mph
1012.5mb - 92f
1:40pm  -   -  11 13 mph 1012.6mb - 92f
1:30pm  -   -  9 11 mph 1012.8mb - 91f
1:20pm  -   -  9 11 mph 1012.9mb - 91f
1:10pm  -   -  7 9 mph 1013mb - 91f
1:00pm 0.7ft  -  7 11 mph 1013.1mb 87f 91f
12:50pm  -   -  9 13 mph 1013.3mb - 91f
12:40pm  -   -  11
mph
1013.3mb - 91f
12:30pm  -   -  11
mph
1013.3mb - 90f
12:20pm  -   -  9 11 mph 1013.4mb - 90f
12:10pm  -   -  7 9 mph 1013.5mb - 89f
12:00pm 1ft 2s 9
mph
1013.6mb 87f 89f
11:50am  -   -  9 11 mph 1013.6mb - 89f
11:40am  -   -  9
mph
1013.7mb - 88f
11:30am  -   -  9
mph
1013.9mb - 88f
11:20am  -   -  7 9 mph 1014mb - 88f
11:10am  -   -  9
mph
1014.1mb - 88f
11:00am 1ft 2s 9 11 mph 1014.1mb 86f 88f
10:50am  -   -  9
mph
1014.1mb - 87f
10:40am  -   -  9 11 mph 1014.2mb - 87f
10:30am  -   -  9 11 mph 1014.1mb - 87f
10:20am  -   -  11 13 mph 1014mb - 87f
10:10am  -   -  11
mph
1014mb - 86f
10:00am 1.3ft 3s 11 13 mph 1013.9mb 85f 86f
9:50am  -   -  11 13 mph 1013.9mb - 86f
9:40am  -   -  9 11 mph 1013.8mb - 85f
9:30am  -   -  9 13 mph 1013.8mb - 85f
9:20am  -   -  11 13 mph 1013.8mb - 85f
9:10am  -   -  11 13 mph 1013.9mb - 84f
9:00am 1ft 2s 11 13 mph 1013.9mb 84f 84f
8:50am  -   -  11 16 mph 1013.8mb - 84f
8:40am  -   -  11 13 mph 1013.9mb - 83f
8:30am  -   -  11 13 mph 1014.1mb - 83f
8:20am  -   -  13 16 mph 1014mb - 83f
8:10am  -   -  13
mph
1014mb - 83f
8:00am 1ft 2s 11 13 mph 1014.1mb 84f 83f
7:50am  -   -  11 16 mph 1014.1mb - 82f
7:40am  -   -  13 16 mph 1014.1mb - 82f
7:30am  -   -  13 16 mph 1014.1mb - 82f
7:20am  -   -  13 16 mph 1014.1mb - 82f
7:10am  -   -  13 16 mph 1014.1mb - 82f
7:00am 1ft 2s 11 16 mph 1014.1mb 84f 82f
6:50am  -   -  11 13 mph 1014.1mb - 82f
6:40am  -   -  11 13 mph 1014.1mb - 82f
6:30am  -   -  11 13 mph 1014mb - 83f
6:20am  -   -  11 13 mph 1013.9mb - 83f
6:10am  -   -  11 13 mph 1013.8mb - 83f
6:00am 1.3ft 2s 11 13 mph 1013.7mb 84f 83f
5:50am  -   -  11 13 mph 1013.9mb - 83f
5:40am  -   -  11 13 mph 1013.9mb - 83f
5:30am  -   -  11 13 mph 1013.9mb - 83f
5:20am  -   -  11
mph
1013.7mb - 83f
5:10am  -   -  11 13 mph 1013.6mb - 84f
5:00am 1ft 2s 11 13 mph 1013.6mb 84f 84f
4:50am  -   -  11 13 mph 1013.6mb - 84f
4:40am  -   -  9 11 mph 1013.6mb - 84f
4:30am  -   -  9 13 mph 1013.5mb - 84f
4:20am  -   -  11 13 mph 1013.5mb - 84f
4:10am  -   -  11 13 mph 1013.5mb - 84f
4:00am 1ft 2s 11 13 mph 1013.4mb 84f 84f
3:50am  -   -  11 13 mph 1013.4mb - 84f
3:40am  -   -  11 13 mph 1013.4mb - 84f
3:30am  -   -  11 13 mph 1013.5mb - 85f
3:20am  -   -  11
mph
1013.5mb - 85f
3:10am  -   -  11 13 mph 1013.5mb - 85f
3:00am 1ft 2s 11 13 mph 1013.5mb 85f 85f
2:50am  -   -  11 13 mph 1013.5mb - 85f
2:40am  -   -  11 13 mph 1013.5mb - 85f
2:30am  -   -  11 13 mph 1013.5mb - 85f
2:20am  -   -  11 13 mph 1013.5mb - 85f
2:10am  -   -  11 13 mph 1013.5mb - 85f
2:00am 1ft 2s 11 13 mph 1013.5mb 85f 85f
1:50am  -   -  11 13 mph 1013.5mb - 85f
1:40am  -   -  11 13 mph 1013.4mb - 85f
1:30am  -   -  11 13 mph 1013.4mb - 85f
1:20am  -   -  11 13 mph 1013.4mb - 85f
1:10am  -   -  9 11 mph 1013.5mb - 85f
1:00am 1.3ft 3s 9 11 mph 1013.6mb 85f 85f
12:50am  -   -  9 11 mph 1013.7mb - 85f
12:40am  -   -  11
mph
1013.7mb - 85f
12:30am  -   -  11 13 mph 1013.7mb - 85f
12:20am  -   -  11 13 mph 1013.7mb - 85f
12:10am  -   -  11 13 mph 1013.8mb - 85f
12:00am 1.3ft 3s 11 13 mph 1013.9mb 85f 85f
Sun 07/24 11:50pm  -   -  13 16 mph 1014mb - 85f
11:40pm  -   -  11 16 mph 1014mb - 85f
11:30pm  -   -  11 13 mph 1014mb - 85f
11:20pm  -   -  11 13 mph 1014.1mb - 85f
11:10pm  -   -  11 13 mph 1014.3mb - 86f
11:00pm 1.3ft 3s 11 16 mph 1014.3mb 85f 86f
10:50pm  -   -  11 13 mph 1014.4mb - 85f
10:40pm  -   -  11 13 mph 1014.4mb - 85f
10:30pm  -   -  11 13 mph 1014.4mb - 85f
10:20pm  -   -  13 16 mph 1014.4mb - 85f
10:10pm  -   -  13 16 mph 1014.4mb - 85f
10:00pm 1.3ft 3s 13 16 mph 1014.4mb 84f 85f
9:50pm  -   -  13 16 mph 1014.3mb - 85f
9:40pm  -   -  13 16 mph 1014.1mb - 86f
9:30pm  -   -  13 16 mph 1014.1mb - 86f
9:20pm  -   -  11 13 mph 1013.9mb - 86f
9:10pm  -   -  11 13 mph 1013.9mb - 86f
9:00pm 1ft 2s 11
mph
1013.9mb 84f 86f
8:50pm  -   -  11 13 mph 1013.9mb - 86f
8:40pm  -   -  11 13 mph 1013.9mb - 86f
8:30pm  -   -  11 13 mph 1013.9mb - 87f
8:20pm  -   -  11 13 mph 1013.8mb - 87f
8:10pm  -   -  11
mph
1013.6mb - 87f
8:00pm 1ft 2s 11 13 mph 1013.6mb 86f 87f
7:50pm  -   -  11 13 mph 1013.4mb - 87f
7:40pm  -   -  11 13 mph 1013.4mb - 87f
7:30pm  -   -  11 13 mph 1013.4mb - 87f
7:20pm  -   -  11 13 mph 1013.4mb - 88f
7:10pm  -   -  11
mph
1013.4mb - 88f
7:00pm 0.3ft  -  11
mph
1013.3mb 86f 88f
6:50pm  -   -  9 11 mph 1013.2mb - 88f
6:40pm  -   -  9 11 mph 1013.2mb - 88f
6:30pm  -   -  9 11 mph 1013.2mb - 88f
6:20pm  -   -  9 11 mph 1013.2mb - 88f
6:10pm  -   -  9
mph
1013.2mb - 88f
6:00pm 0.7ft  -  9
mph
1013.3mb 86f 89f
5:50pm  -   -  9 11 mph 1013.4mb - 89f
5:40pm  -   -  9 11 mph 1013.5mb - 89f
5:30pm  -   -  9 11 mph 1013.5mb - 89f
5:20pm  -   -  11
mph
1013.5mb - 89f
5:10pm  -   -  11
mph
1013.5mb - 89f
5:00pm 0.3ft  -  9 11 mph 1013.5mb 86f 89f
4:50pm  -   -  7 9 mph 1013.6mb - 88f
4:40pm  -   -  7 9 mph 1013.6mb - 89f
4:30pm  -   -  7
mph
1013.5mb - 89f
4:20pm  -   -  7
mph
1013.5mb - 88f
4:10pm  -   -  4 7 mph 1013.5mb - 88f
4:00pm 0.3ft  -  4 7 mph 1013.6mb 85f 88f
3:50pm  -   -  4 7 mph 1013.6mb - 88f
3:40pm  -   -  7
mph
1013.6mb - 87f
3:30pm  -   -  7
mph
1013.6mb - 87f
3:20pm  -   -  4 7 mph 1013.8mb - 87f
3:10pm  -   -  4 7 mph 1014.1mb - 87f
3:00pm 0.3ft  -  4 7 mph 1014.2mb 86f 87f
2:50pm  -   -  4 7 mph 1014.3mb - 87f
2:40pm  -   -  4 7 mph 1014.4mb - 87f
2:30pm  -   -  4 7 mph 1014.5mb - 87f
2:20pm  -   -  4 7 mph 1014.5mb - 87f
2:10pm  -   -  4 7 mph 1014.5mb - 87f
2:00pm 0.3ft  -  4 7 mph 1014.5mb 86f 87f
1:50pm  -   -  4 7 mph 1014.5mb - 86f
1:40pm  -   -  4 7 mph 1014.6mb - 86f
1:30pm  -   -  4 7 mph 1014.7mb - 86f
1:20pm  -   -  4 7 mph 1014.8mb - 86f
1:10pm  -   -  4 7 mph 1014.8mb - 86f
1:00pm 0.3ft  -  4
mph
1014.8mb 86f 86f
12:50pm  -   -  4
mph
1014.7mb - 86f
12:40pm  -   -  4 7 mph 1014.7mb - 86f
12:30pm  -   -  4 7 mph 1014.7mb - 85f
12:20pm  -   -  4 7 mph 1014.7mb - 85f
12:10pm  -   -  4 7 mph 1014.7mb - 85f
12:00pm 0.3ft  -  4 7 mph 1014.6mb 85f 85f
11:50am  -   -  4 7 mph 1014.6mb - 85f
11:40am  -   -  4 7 mph 1014.5mb - 85f
11:30am  -   -  4 7 mph 1014.4mb - 84f
11:20am  -   -  4 7 mph 1014.4mb - 84f
11:10am  -   -  4 7 mph 1014.3mb - 84f
11:00am 0.3ft  -  4 7 mph 1014.2mb 85f 84f
10:50am  -   -  7
mph
1014.1mb - 84f
10:40am  -   -  7 9 mph 1014mb - 84f
10:30am  -   -  7 9 mph 1014.1mb - 84f
10:20am  -   -  7 9 mph 1014.2mb - 84f
10:10am  -   -  4 7 mph 1014.2mb - 85f
10:00am 0.3ft  -  4 7 mph 1014.2mb 85f 84f
9:50am  -   -  7
mph
1014.2mb - 84f
9:40am  -   -  4 7 mph 1014.2mb - 84f
9:30am  -   -  4 7 mph 1014.1mb - 84f
9:20am  -   -  4
mph
1014mb - 84f
9:10am  -   -  4 7 mph 1014mb - 84f
9:00am 0.3ft  -  7
mph
1013.9mb 85f 84f
8:50am  -   -  7
mph
1013.9mb - 84f
8:40am  -   -  7 9 mph 1013.8mb - 84f
8:30am  -   -  7 9 mph 1013.8mb - 84f
8:20am  -   -  7 11 mph 1013.8mb - 84f
8:10am  -   -  9 11 mph 1013.7mb - 84f
8:00am 0.3ft  -  7 9 mph 1013.6mb 84f 84f
7:50am  -   -  4
mph
1013.6mb - 84f
7:40am  -   -  4 7 mph 1013.6mb - 84f
7:30am  -   -  4 7 mph 1013.6mb - 84f
7:20am  -   -  7 9 mph 1013.6mb - 84f
7:10am  -   -  7 9 mph 1013.5mb - 84f
7:00am 0.7ft  -  7 9 mph 1013.3mb 84f 84f
6:50am  -   -  7 9 mph 1013.1mb - 83f
6:40am  -   -  7 9 mph 1013.1mb - 83f
6:30am  -   -  7 9 mph 1013mb - 83f
6:20am  -   -  9
mph
1012.9mb - 83f
6:10am  -   -  9 11 mph 1012.8mb - 83f
6:00am 1ft 2s 9 11 mph 1012.7mb 84f 83f
5:50am  -   -  9 11 mph 1012.8mb - 83f
5:40am  -   -  9 11 mph 1012.7mb - 83f
5:30am  -   -  9 11 mph 1012.7mb - 84f
5:20am  -   -  11 13 mph 1012.6mb - 84f
5:10am  -   -  11 13 mph 1012.4mb - 84f
5:00am 1ft 2s 11 13 mph 1012.3mb 85f 84f
4:50am  -   -  11
mph
1012.3mb - 84f
4:40am  -   -  9 11 mph 1012.3mb - 84f
4:30am  -   -  9 11 mph 1012.2mb - 84f
4:20am  -   -  7 9 mph 1012.2mb - 84f
4:10am  -   -  9 11 mph 1012.3mb - 84f
4:00am 1.3ft 2s 9 11 mph 1012.4mb 84f 84f
3:50am  -   -  9 11 mph 1012.4mb - 84f
3:40am  -   -  11
mph
1012.5mb - 84f
3:30am  -   -  11 13 mph 1012.5mb - 84f
3:20am  -   -  13 16 mph 1012.5mb - 84f
3:10am  -   -  13 16 mph 1012.5mb - 84f
3:00am 1.3ft 2s 13 16 mph 1012.6mb 85f 85f
2:50am  -   -  16 18 mph 1012.6mb - 85f
2:40am  -   -  13 16 mph 1012.6mb - 85f
2:30am  -   -  13 16 mph 1012.6mb - 85f
2:20am  -   -  13 18 mph 1012.5mb - 85f
2:10am  -   -  13 16 mph 1012.5mb - 85f
2:00am 1.3ft 2s 13 16 mph 1012.5mb 85f 85f
1:50am  -   -  13 16 mph 1012.4mb - 85f
1:40am  -   -  13 18 mph 1012.4mb - 85f
1:30am  -   -  13 16 mph 1012.3mb - 85f
1:20am  -   -  13 16 mph 1012.3mb - 85f
1:10am  -   -  13 16 mph 1012.2mb - 85f
1:00am 1ft 2s 13 16 mph 1012.3mb 85f 85f
12:50am  -   -  11 16 mph 1012.3mb - 85f
12:40am  -   -  13 16 mph 1012.3mb - 86f
12:30am  -   -  11 13 mph 1012.2mb - 86f
12:20am  -   -  11 13 mph 1012.2mb - 86f
12:10am  -   -  11 16 mph 1012.3mb - 86f
12:00am 0.7ft  -  11 13 mph 1012.1mb 85f 86f
Sat 07/23 11:50pm  -   -  11 13 mph 1012.1mb - 86f
11:40pm  -   -  11
mph
1012.1mb - 86f
11:30pm  -   -  9 11 mph 1012.1mb - 86f
11:20pm  -   -  9 11 mph 1012.1mb - 86f
11:10pm  -   -  9 11 mph 1012.2mb - 86f
11:00pm 0.3ft  -  9
mph
1012.2mb 85f 86f
10:50pm  -   -  9 11 mph 1012.1mb - 86f
10:40pm  -   -  9 11 mph 1011.9mb - 86f
10:30pm  -   -  9 11 mph 1011.9mb - 87f
10:20pm  -   -  9 11 mph 1012mb - 87f
10:10pm  -   -  9 11 mph 1011.9mb - 87f
10:00pm 0.7ft  -  7 9 mph 1011.9mb 85f 87f
9:50pm  -   -  7
mph
1011.8mb - 87f
9:40pm  -   -  7 9 mph 1011.7mb - 87f
9:30pm  -   -  9
mph
1011.5mb - 87f
9:20pm  -   -  9
mph
1011.2mb - 87f
9:10pm  -   -  9
mph
1011mb - 87f
9:00pm 0.7ft  -  9
mph
1010.9mb 85f 87f
8:50pm  -   -  9
mph
1011mb - 88f
8:40pm  -   -  9
mph
1010.9mb - 88f
8:30pm  -   -  9
mph
1010.9mb - 88f
8:20pm  -   -  7
mph
1011mb - 88f
8:10pm  -   -  7 9 mph 1011mb - 88f
8:00pm 0.7ft  -  9
mph
1010.9mb 85f 89f
7:50pm  -   -  9
mph
1010.9mb - 89f
7:40pm  -   -  4 9 mph 1011.1mb - 90f
7:30pm  -   -  4 9 mph 1010.9mb - 90f
7:20pm  -   -  4 7 mph 1010.8mb - 90f
7:10pm  -   -  4 7 mph 1010.5mb - 90f
7:00pm 1ft 2s 4
mph
1010.4mb 85f 90f
6:50pm  -   -  4 9 mph 1010.3mb - 90f
6:40pm  -   -  4 11 mph 1010.4mb - 90f
6:30pm  -   -  4 7 mph 1010.4mb - 90f
6:20pm  -   -  7 9 mph 1010.4mb - 90f
6:10pm  -   -  9 11 mph 1010.4mb - 90f
6:00pm 1ft 2s 11 16 mph 1010.4mb 85f 91f
5:50pm  -   -  11 16 mph 1010.3mb - 91f
5:40pm  -   -  11 16 mph 1010.1mb - 91f
5:30pm  -   -  9 13 mph 1010.2mb - 91f
5:20pm  -   -  9 13 mph 1010.2mb - 89f
5:10pm  -   -  9 11 mph 1010.5mb - 88f
5:00pm 1ft 2s 7 9 mph 1010.6mb 85f 88f
4:50pm  -   -  7 11 mph 1010.7mb - 87f
4:40pm  -   -  9 11 mph 1010.9mb - 88f
4:30pm  -   -  9 11 mph 1011mb - 88f
4:20pm  -   -  11 13 mph 1011.1mb - 88f
4:10pm  -   -  11 13 mph 1011.3mb - 87f
4:00pm 1.3ft 2s 11
mph
1011.3mb 85f 87f
3:50pm  -   -  11 16 mph 1011.4mb - 87f
3:40pm  -   -  13 16 mph 1011.5mb - 87f
3:30pm  -   -  13 16 mph 1011.5mb - 87f
3:20pm  -   -  11 16 mph 1011.7mb - 87f
3:10pm  -   -  11 13 mph 1012mb - 87f
3:00pm 0.7ft  -  11 13 mph 1012.2mb 85f 87f
2:50pm  -   -  11 13 mph 1012.3mb - 87f
2:40pm  -   -  11 13 mph 1012.3mb - 87f
2:30pm  -   -  11 13 mph 1012.3mb - 87f
2:20pm  -   -  9 11 mph 1012.4mb - 87f
2:10pm  -   -  9 11 mph 1012.5mb - 87f
2:00pm 0.7ft  -  7 9 mph 1012.5mb 87f 87f
1:50pm  -   -  7 9 mph 1012.6mb - 87f
1:40pm  -   -  4 7 mph 1012.6mb - 87f
1:30pm  -   -  4
mph
1012.8mb - 87f
1:20pm  -   -  2 4 mph 1012.8mb - 87f
1:10pm  -   -  4
mph
1012.8mb - 86f
1:00pm 0.3ft  -  4
mph
1012.9mb 85f 86f
12:50pm  -   -  4
mph
1013mb - 86f
12:40pm  -   -  2 4 mph 1013mb - 86f
12:30pm  -   -  2 4 mph 1013.1mb - 86f
12:20pm  -   -  4
mph
1013mb - 86f
12:10pm  -   -  4 7 mph 1013mb - 86f
12:00pm 0.3ft  -  4 7 mph 1013mb 85f 85f
11:50am  -   -  4 7 mph 1013mb - 85f
11:40am  -   -  4
mph
1013.1mb - 85f
11:30am  -   -  4 7 mph 1013.2mb - 85f
11:20am  -   -  7
mph
1013.2mb - 85f
11:10am  -   -  7 9 mph 1013.2mb - 84f
11:00am 0.3ft  -  7 9 mph 1013.4mb 85f 84f
10:50am  -   -  9
mph
1013.3mb - 84f
10:40am  -   -  9
mph
1013.3mb - 83f
10:30am  -   -  9
mph
1013.1mb - 83f
10:20am  -   -  9 11 mph 1013mb - 83f
10:10am  -   -  9 11 mph 1013mb - 83f
10:00am 0.3ft  -  9
mph
1013mb 84f 83f
9:50am  -   -  9
mph
1013.1mb - 83f
9:40am  -   -  9
mph
1013.1mb - 83f
9:30am  -   -  9
mph
1013.1mb - 83f
9:20am  -   -  9
mph
1013mb - 83f
9:10am  -   -  9
mph
1013.1mb - 83f
9:00am 0.7ft  -  7 9 mph 1013.1mb 83f 83f
8:50am  -   -  7 9 mph 1013.1mb - 82f
8:40am  -   -  7 9 mph 1013.1mb - 82f
8:30am  -   -  9
mph
1013mb - 82f
8:20am  -   -  9
mph
1013mb - 82f
8:10am  -   -  9
mph
1012.9mb - 81f
8:00am 0.7ft  -  9 11 mph 1013mb 83f 82f
7:50am  -   -  9 11 mph 1013mb - 81f
7:40am  -   -  9 11 mph 1012.9mb - 81f
7:30am  -   -  9 11 mph 1012.8mb - 81f
7:20am  -   -  9 11 mph 1012.7mb - 81f
7:10am  -   -  9 11 mph 1012.7mb - 81f
7:00am 0.7ft  -  11
mph
1012.7mb 83f 80f
6:50am  -   -  9 11 mph 1012.7mb - 80f
6:40am  -   -  11
mph
1012.7mb - 81f
6:30am  -   -  9 11 mph 1012.6mb - 81f
6:20am  -   -  11
mph
1012.5mb - 80f
6:10am  -   -  9 11 mph 1012.5mb - 81f
6:00am 1ft 2s 9 11 mph 1012.4mb 83f 81f
5:50am  -   -  11 13 mph 1012.4mb - 81f
5:40am  -   -  11 13 mph 1012.4mb - 81f
5:30am  -   -  9 11 mph 1012.4mb - 81f
5:20am  -   -  9 11 mph 1012.3mb - 81f
5:10am  -   -  9 11 mph 1012.2mb - 82f
5:00am 1.3ft 2s 9 11 mph 1012.1mb 83f 82f
4:50am  -   -  11 13 mph 1012mb - 82f
4:40am  -   -  11 13 mph 1012mb - 82f
4:30am  -   -  11 13 mph 1012mb - 82f
4:20am  -   -  11 13 mph 1012.2mb - 82f
4:10am  -   -  11 13 mph 1012.3mb - 82f
4:00am 1.3ft 2s 11 13 mph 1012.3mb 83f 82f
3:50am  -   -  11 13 mph 1012.4mb - 82f
3:40am  -   -  13 16 mph 1012.3mb - 82f
3:30am  -   -  13 16 mph 1012.2mb - 82f
3:20am  -   -  16 18 mph 1012.2mb - 83f
3:10am  -   -  16 18 mph 1012.2mb - 83f
3:00am 1.6ft 2s 16 20 mph 1012.2mb 83f 83f
2:50am  -   -  16 20 mph 1012.2mb - 83f
2:40am  -   -  18 20 mph 1012.3mb - 83f
2:30am  -   -  16 20 mph 1012.3mb - 83f
2:20am  -   -  16 20 mph 1012.3mb - 83f
2:10am  -   -  16 18 mph 1012.3mb - 83f
2:00am 1.3ft 2s 16 18 mph 1012.4mb 83f 83f
1:50am  -   -  16 18 mph 1012.5mb - 83f
1:40am  -   -  16 18 mph 1012.4mb - 83f
1:30am  -   -  16 18 mph 1012.5mb - 83f
1:20am  -   -  16 18 mph 1012.5mb - 83f
1:10am  -   -  16 18 mph 1012.6mb - 83f
1:00am 1.3ft 2s 16 18 mph 1012.6mb 83f 83f
12:50am  -   -  16 18 mph 1012.7mb - 83f
12:40am  -   -  13 18 mph 1012.7mb - 83f
12:30am  -   -  16 18 mph 1012.6mb - 83f
12:20am  -   -  13 18 mph 1012.6mb - 83f
12:10am  -   -  16 18 mph 1012.7mb - 84f
12:00am 0.7ft  -  13 18 mph 1012.8mb 83f 84f
Fri 07/22 11:50pm  -   -  13 18 mph 1012.8mb - 84f
11:40pm  -   -  13 16 mph 1012.7mb - 84f
11:30pm  -   -  11 16 mph 1012.6mb - 84f
11:20pm  -   -  11 13 mph 1012.6mb - 84f
11:10pm  -   -  9 11 mph 1012.6mb - 84f
11:00pm 0.3ft  -  9 11 mph 1012.6mb 83f 84f
10:50pm  -   -  9
mph
1012.6mb - 84f
10:40pm  -   -  9
mph
1012.6mb - 84f
10:30pm  -   -  9
mph
1012.7mb - 85f
10:20pm  -   -  9 11 mph 1012.6mb - 85f
10:10pm  -   -  7 9 mph 1012.6mb - 85f
10:00pm 0.7ft  -  7 9 mph 1012.5mb 83f 85f
9:50pm  -   -  7 9 mph 1012.4mb - 85f
9:40pm  -   -  7 9 mph 1012.2mb - 85f
9:30pm  -   -  7 9 mph 1012mb - 85f